Time;durP1;ratioP1;P1;durP2;ratioP2;P2;SDS_P1;SDS_P2;PMS_P1;PMS_P2;Temp;Humidity;BMP_temperature;BMP_pressure;BME280_temperature;BME280_humidity;BME280_pressure;Samples;Min_cycle;Max_cycle;Signal;HPM_P1;HPM_P2
2021/01/04 00:01:33;;;;;;;20.38;11.88;;;7.80;99.90;;;;;;5062861;28;20020;-75
2021/01/04 00:04:26;;;;;;;42.10;15.38;;;7.80;99.90;;;;;;5061584;28;20087;-75
2021/01/04 00:07:26;;;;;;;31.25;14.52;;;7.70;99.90;;;;;;5060322;28;20028;-75
2021/01/04 00:10:10;;;;;;;41.47;19.67;;;7.60;99.90;;;;;;5062751;28;20027;-75
2021/01/04 00:12:55;;;;;;;58.13;28.85;;;7.60;99.90;;;;;;5062584;28;20155;-75
2021/01/04 00:15:31;;;;;;;62.50;31.33;;;7.60;99.90;;;;;;5062606;28;20054;-75
2021/01/04 00:18:06;;;;;;;75.13;35.60;;;7.60;99.90;;;;;;5062560;28;20016;-75
2021/01/04 00:20:38;;;;;;;67.05;34.05;;;7.50;99.90;;;;;;5062442;28;20032;-74
2021/01/04 00:23:36;;;;;;;89.75;42.92;;;7.50;99.90;;;;;;5061983;28;20021;-75
2021/01/04 00:26:12;;;;;;;116.97;53.92;;;7.50;99.90;;;;;;5064024;28;20178;-74
2021/01/04 00:28:39;;;;;;;111.18;59.55;;;7.50;99.90;;;;;;5072093;28;20107;-75
2021/01/04 00:31:14;;;;;;;119.32;62.22;;;7.50;99.90;;;;;;5072270;28;20033;-75
2021/01/04 00:33:51;;;;;;;125.18;67.10;;;7.50;99.90;;;;;;5072249;28;20024;-75
2021/01/04 00:36:25;;;;;;;147.57;78.07;;;7.40;99.90;;;;;;5072237;28;20024;-75
2021/01/04 00:39:09;;;;;;;146.93;74.68;;;7.40;99.90;;;;;;5072150;28;20024;-75
2021/01/04 00:41:53;;;;;;;140.15;70.75;;;7.50;99.90;;;;;;5072092;28;20029;-75
2021/01/04 00:44:46;;;;;;;131.55;64.38;;;7.50;99.90;;;;;;5071944;28;20032;-75
2021/01/04 00:47:27;;;;;;;144.75;68.80;;;7.50;99.90;;;;;;5050386;28;20458;-75
2021/01/04 00:50:04;;;;;;;126.97;62.95;;;7.50;99.90;;;;;;5071987;28;20028;-75
2021/01/04 00:52:59;;;;;;;139.40;62.35;;;7.40;99.90;;;;;;5071794;28;20028;-75
2021/01/04 00:55:54;;;;;;;146.18;68.10;;;7.50;99.90;;;;;;5066088;28;20510;-75
2021/01/04 00:58:38;;;;;;;164.65;67.75;;;7.50;99.90;;;;;;5071829;28;20025;-74
2021/01/04 01:01:12;;;;;;;132.38;58.65;;;7.50;99.90;;;;;;5071750;28;20017;-74
2021/01/04 01:03:45;;;;;;;69.72;36.95;;;7.50;99.90;;;;;;5053617;28;20036;-74
2021/01/04 01:06:23;;;;;;;85.60;41.33;;;7.50;99.90;;;;;;5071312;28;20021;-74
2021/01/04 01:08:54;;;;;;;103.88;44.88;;;7.50;99.90;;;;;;5071645;28;20013;-75
2021/01/04 01:11:48;;;;;;;99.35;44.00;;;7.50;99.90;;;;;;5071556;28;20021;-74
2021/01/04 01:14:39;;;;;;;84.03;38.08;;;7.50;99.90;;;;;;5071460;28;20107;-75
2021/01/04 01:17:35;;;;;;;51.90;28.05;;;7.40;99.90;;;;;;5071579;28;20028;-75
2021/01/04 01:20:02;;;;;;;37.95;22.55;;;7.40;99.90;;;;;;5071396;28;20056;-75
2021/01/04 01:22:39;;;;;;;31.02;19.60;;;7.40;99.90;;;;;;5071308;28;20111;-75
2021/01/04 01:25:14;;;;;;;34.72;23.13;;;7.40;99.90;;;;;;5071374;28;20029;-75
2021/01/04 01:28:24;;;;;;;36.42;22.85;;;7.40;99.90;;;;;;5053378;28;20051;-74
2021/01/04 01:31:02;;;;;;;37.20;20.50;;;7.40;99.90;;;;;;5070968;28;20132;-75
2021/01/04 01:33:46;;;;;;;27.08;16.45;;;7.40;99.90;;;;;;5053331;28;20488;-75
2021/01/04 01:37:09;;;;;;;26.10;15.48;;;7.50;99.90;;;;;;5071173;28;20115;-74
2021/01/04 01:40:05;;;;;;;21.17;11.60;;;7.50;99.90;;;;;;5028987;28;20025;-75
2021/01/04 01:43:01;;;;;;;18.05;11.30;;;7.50;99.90;;;;;;5028925;28;20030;-75
2021/01/04 01:45:46;;;;;;;15.77;10.20;;;7.50;99.90;;;;;;5071177;28;20029;-75
2021/01/04 01:48:45;;;;;;;15.63;10.60;;;7.50;99.90;;;;;;5071097;28;20021;-75
2021/01/04 01:51:27;;;;;;;14.25;8.77;;;7.50;99.90;;;;;;5067548;28;20028;-75
2021/01/04 01:54:11;;;;;;;13.70;7.65;;;7.50;99.90;;;;;;5071054;28;20021;-74
2021/01/04 01:56:58;;;;;;;10.68;6.88;;;7.40;99.90;;;;;;5070952;28;20024;-75
2021/01/04 01:59:32;;;;;;;12.48;6.60;;;7.50;99.90;;;;;;5070916;28;20021;-75
2021/01/04 02:02:27;;;;;;;12.00;6.30;;;7.50;99.90;;;;;;5070929;28;20063;-74
2021/01/04 02:05:19;;;;;;;11.80;6.22;;;7.60;99.90;;;;;;5070947;28;20116;-75
2021/01/04 02:07:52;;;;;;;10.18;6.00;;;7.60;99.90;;;;;;5060047;28;20620;-75
2021/01/04 02:10:43;;;;;;;10.55;6.75;;;7.60;99.90;;;;;;5070981;28;20434;-75
2021/01/04 02:13:28;;;;;;;13.60;7.93;;;7.70;99.90;;;;;;5070892;28;20119;-75
2021/01/04 02:16:05;;;;;;;16.60;9.98;;;7.70;99.90;;;;;;5070949;28;20095;-75
2021/01/04 02:19:02;;;;;;;19.23;11.98;;;7.70;99.90;;;;;;5071691;28;20077;-75
2021/01/04 02:21:43;;;;;;;21.73;14.13;;;7.70;99.90;;;;;;5074820;28;20024;-74
2021/01/04 02:24:13;;;;;;;24.98;14.18;;;7.60;99.90;;;;;;5074732;28;20021;-75
2021/01/04 02:26:57;;;;;;;22.20;13.27;;;7.60;99.90;;;;;;5074757;28;20052;-75
2021/01/04 02:29:23;;;;;;;21.92;13.00;;;7.60;99.90;;;;;;5074481;28;20575;-75
2021/01/04 02:31:54;;;;;;;22.45;14.70;;;7.60;99.90;;;;;;5074695;28;20056;-74
2021/01/04 02:34:25;;;;;;;33.67;15.70;;;7.50;99.90;;;;;;5074633;28;20418;-75
2021/01/04 02:36:54;;;;;;;26.23;14.88;;;7.50;99.90;;;;;;5074643;28;20024;-74
2021/01/04 02:39:23;;;;;;;20.95;12.63;;;7.50;99.90;;;;;;5074622;28;20028;-74
2021/01/04 02:42:03;;;;;;;22.73;11.23;;;7.50;99.90;;;;;;5074660;28;20028;-75
2021/01/04 02:44:30;;;;;;;20.60;12.52;;;7.60;99.90;;;;;;5056257;28;20025;-75
2021/01/04 02:47:22;;;;;;;23.70;13.35;;;7.50;99.90;;;;;;5074445;28;20055;-74
2021/01/04 02:50:06;;;;;;;45.47;18.73;;;7.50;99.90;;;;;;5074190;28;20028;-74
2021/01/04 02:52:47;;;;;;;50.00;18.27;;;7.50;99.90;;;;;;5074276;28;20035;-75
2021/01/04 02:55:24;;;;;;;61.97;20.63;;;7.50;99.90;;;;;;5074209;28;20386;-74
2021/01/04 02:58:02;;;;;;;72.35;22.92;;;7.50;99.90;;;;;;5074144;28;20094;-75
2021/01/04 03:00:28;;;;;;;55.13;19.77;;;7.50;99.90;;;;;;5073919;28;20395;-75
2021/01/04 03:03:00;;;;;;;36.53;15.75;;;7.50;99.90;;;;;;5074003;28;20056;-74
2021/01/04 03:05:27;;;;;;;27.58;14.20;;;7.50;99.90;;;;;;5073942;28;20025;-75
2021/01/04 03:07:58;;;;;;;19.92;11.02;;;7.40;99.90;;;;;;5073969;28;20024;-74
2021/01/04 03:10:34;;;;;;;17.50;11.32;;;7.40;99.90;;;;;;5055810;28;20028;-75
2021/01/04 03:13:05;;;;;;;17.42;10.73;;;7.40;99.90;;;;;;5073734;28;20039;-74
2021/01/04 03:15:36;;;;;;;19.25;11.88;;;7.30;99.90;;;;;;5073885;28;20123;-74
2021/01/04 03:18:41;;;;;;;19.33;11.65;;;7.30;99.90;;;;;;5073801;28;20028;-74
2021/01/04 03:21:08;;;;;;;17.38;10.18;;;7.20;99.90;;;;;;5073663;28;20055;-75
2021/01/04 03:23:34;;;;;;;23.67;12.73;;;7.20;99.90;;;;;;5073619;28;20050;-74
2021/01/04 03:26:12;;;;;;;26.10;8.65;;;7.20;99.90;;;;;;5073685;28;20391;-75
2021/01/04 03:28:38;;;;;;;17.35;9.73;;;7.20;99.90;;;;;;5073522;28;20028;-75
2021/01/04 03:31:05;;;;;;;16.85;10.10;;;7.20;99.90;;;;;;5073408;28;20039;-75
2021/01/04 03:33:32;;;;;;;20.10;9.73;;;7.30;99.90;;;;;;5073486;28;20380;-75
2021/01/04 03:35:58;;;;;;;19.85;10.15;;;7.20;99.90;;;;;;5073420;28;20059;-75
2021/01/04 03:38:24;;;;;;;16.77;9.98;;;7.30;99.90;;;;;;5073492;28;20028;-75
2021/01/04 03:40:50;;;;;;;18.23;8.10;;;7.30;99.90;;;;;;5073540;28;20029;-75
2021/01/04 03:43:17;;;;;;;15.07;8.00;;;7.30;99.90;;;;;;5073255;28;20028;-75
2021/01/04 03:45:43;;;;;;;21.55;9.25;;;7.40;99.90;;;;;;5073221;28;20025;-75
2021/01/04 03:48:10;;;;;;;17.23;9.05;;;7.40;99.90;;;;;;5073326;28;20043;-75
2021/01/04 03:50:36;;;;;;;17.15;9.65;;;7.40;99.90;;;;;;5073240;28;20162;-75
2021/01/04 03:53:04;;;;;;;31.27;17.95;;;7.50;99.90;;;;;;5073124;28;20035;-75
2021/01/04 03:55:29;;;;;;;34.47;19.33;;;7.40;99.90;;;;;;5073293;28;20498;-75
2021/01/04 03:57:55;;;;;;;28.90;14.30;;;7.40;99.90;;;;;;5073121;28;20024;-75
2021/01/04 04:00:22;;;;;;;31.83;14.20;;;7.40;99.90;;;;;;5072900;28;20516;-75
2021/01/04 04:02:49;;;;;;;55.55;16.90;;;7.40;99.90;;;;;;5072845;28;20369;-74
2021/01/04 04:05:17;;;;;;;40.17;14.88;;;7.40;99.90;;;;;;5072941;28;20096;-74
2021/01/04 04:07:44;;;;;;;26.75;13.90;;;7.30;99.90;;;;;;5072838;28;20028;-74
2021/01/04 04:10:12;;;;;;;33.20;20.55;;;7.30;99.90;;;;;;5072750;28;20082;-74
2021/01/04 04:12:38;;;;;;;22.00;14.57;;;7.20;99.90;;;;;;5072786;28;20106;-74
2021/01/04 04:15:07;;;;;;;19.70;11.70;;;7.20;99.90;;;;;;5072674;28;20075;-74
2021/01/04 04:17:33;;;;;;;12.60;8.68;;;7.20;99.90;;;;;;5072632;28;20474;-74
2021/01/04 04:19:59;;;;;;;14.55;9.15;;;7.20;99.90;;;;;;5072583;28;20027;-74
2021/01/04 04:22:25;;;;;;;17.92;8.80;;;7.20;99.90;;;;;;5072489;28;20021;-75
2021/01/04 04:24:50;;;;;;;15.13;8.35;;;7.20;99.90;;;;;;5072561;28;20651;-75
2021/01/04 04:27:17;;;;;;;11.15;8.10;;;7.20;99.90;;;;;;5072429;28;20353;-75
2021/01/04 04:29:45;;;;;;;13.60;8.27;;;7.20;99.90;;;;;;5072319;28;20098;-75
2021/01/04 04:32:11;;;;;;;20.30;11.15;;;7.20;99.90;;;;;;5072407;28;20060;-75
2021/01/04 04:34:38;;;;;;;20.50;11.73;;;7.20;99.90;;;;;;5072378;28;20029;-75
2021/01/04 04:37:07;;;;;;;28.52;10.50;;;7.20;99.90;;;;;;5072215;28;20085;-75
2021/01/04 04:39:33;;;;;;;22.83;11.68;;;7.20;99.90;;;;;;5071837;28;20036;-75
2021/01/04 04:42:04;;;;;;;20.85;11.77;;;7.20;99.90;;;;;;5071515;28;20574;-75
2021/01/04 04:44:41;;;;;;;30.48;17.48;;;7.20;99.90;;;;;;5072068;28;20028;-75
2021/01/04 04:47:37;;;;;;;28.15;15.02;;;7.20;99.90;;;;;;5072304;28;20558;-75
2021/01/04 04:50:20;;;;;;;23.60;14.90;;;7.30;99.90;;;;;;5072044;28;20048;-75
2021/01/04 04:52:49;;;;;;;24.63;14.60;;;7.20;99.90;;;;;;5071885;28;20025;-75
2021/01/04 04:55:51;;;;;;;27.80;15.18;;;7.20;99.90;;;;;;5071977;28;20050;-75
2021/01/04 04:58:39;;;;;;;28.02;16.15;;;7.20;99.90;;;;;;5071983;28;20074;-74
2021/01/04 05:01:23;;;;;;;24.35;11.18;;;7.10;99.90;;;;;;5071994;28;20021;-75
2021/01/04 05:04:00;;;;;;;18.00;9.50;;;7.20;99.90;;;;;;5071835;28;20032;-75
2021/01/04 05:06:43;;;;;;;22.67;12.55;;;7.10;99.90;;;;;;5071762;28;20029;-75
2021/01/04 05:09:44;;;;;;;20.50;12.13;;;7.10;99.90;;;;;;5071751;28;20056;-75
2021/01/04 05:12:27;;;;;;;22.50;12.80;;;7.10;99.90;;;;;;5071744;28;20461;-75
2021/01/04 05:15:27;;;;;;;23.08;11.70;;;7.20;99.90;;;;;;5071621;28;20033;-75
2021/01/04 05:18:04;;;;;;;21.40;11.52;;;7.20;99.90;;;;;;5071448;28;20021;-75
2021/01/04 05:20:33;;;;;;;19.88;12.88;;;7.20;99.90;;;;;;5053519;28;20353;-74
2021/01/04 05:23:20;;;;;;;19.60;13.13;;;7.20;99.90;;;;;;5071341;28;20024;-75
2021/01/04 05:26:05;;;;;;;22.25;13.88;;;7.10;99.90;;;;;;5071405;28;20396;-75
2021/01/04 05:28:45;;;;;;;26.02;15.38;;;7.10;99.90;;;;;;5071254;28;20025;-74
2021/01/04 05:31:28;;;;;;;24.55;15.90;;;7.10;99.90;;;;;;5071361;28;20107;-74
2021/01/04 05:34:03;;;;;;;27.52;17.38;;;7.10;99.90;;;;;;5071275;28;20081;-75
2021/01/04 05:36:44;;;;;;;23.13;15.20;;;7.00;99.90;;;;;;5053287;28;20024;-74
2021/01/04 05:39:09;;;;;;;24.98;16.80;;;7.00;99.90;;;;;;5071239;28;20495;-75
2021/01/04 05:41:57;;;;;;;20.88;15.32;;;7.00;99.90;;;;;;5071098;28;20028;-74
2021/01/04 05:44:49;;;;;;;27.42;13.85;;;7.00;99.90;;;;;;5071086;28;20025;-75
2021/01/04 05:47:15;;;;;;;53.63;15.52;;;7.00;99.90;;;;;;5071117;28;20025;-75
2021/01/04 05:49:51;;;;;;;40.33;23.98;;;7.00;99.90;;;;;;5071043;28;20021;-75
2021/01/04 05:52:18;;;;;;;76.82;39.90;;;7.00;99.90;;;;;;5070810;28;20028;-75
2021/01/04 05:54:44;;;;;;;83.18;44.30;;;7.00;99.90;;;;;;5070243;28;20024;-75
2021/01/04 05:57:13;;;;;;;76.65;38.85;;;7.00;99.90;;;;;;5070986;28;20021;-75
2021/01/04 05:59:51;;;;;;;61.17;31.58;;;7.00;99.90;;;;;;5071020;28;20540;-75
2021/01/04 06:02:34;;;;;;;46.85;26.05;;;6.90;99.90;;;;;;5070976;28;20038;-75
2021/01/04 06:05:10;;;;;;;53.28;31.33;;;7.00;99.90;;;;;;5071117;28;20403;-75
2021/01/04 06:07:38;;;;;;;40.42;24.98;;;7.00;99.90;;;;;;5071235;28;20058;-75
2021/01/04 06:10:06;;;;;;;35.50;22.08;;;7.00;99.90;;;;;;5071151;28;20660;-75
2021/01/04 06:12:38;;;;;;;38.05;23.13;;;7.00;99.90;;;;;;5070930;28;20024;-75
2021/01/04 06:15:07;;;;;;;39.40;22.35;;;7.00;99.90;;;;;;5071021;28;20059;-75
2021/01/04 06:17:43;;;;;;;34.28;21.23;;;7.00;99.90;;;;;;5070850;28;20025;-75
2021/01/04 06:20:41;;;;;;;58.60;35.03;;;7.00;99.90;;;;;;5070854;28;20418;-76
2021/01/04 06:23:42;;;;;;;68.88;40.45;;;6.90;99.90;;;;;;5070627;28;20028;-75
2021/01/04 06:26:19;;;;;;;33.92;21.60;;;7.00;99.90;;;;;;5050589;28;20033;-75
2021/01/04 06:28:46;;;;;;;32.30;21.35;;;7.00;99.90;;;;;;5070629;28;20028;-75
2021/01/04 06:31:15;;;;;;;42.42;25.08;;;6.90;99.90;;;;;;5070786;28;20483;-75
2021/01/04 06:33:41;;;;;;;45.47;28.40;;;6.80;99.90;;;;;;5070687;28;20076;-75
2021/01/04 06:36:17;;;;;;;57.53;27.13;;;6.80;99.90;;;;;;5070598;28;20052;-74
2021/01/04 06:38:44;;;;;;;32.45;22.80;;;6.80;99.90;;;;;;5070606;28;20372;-74
2021/01/04 06:41:16;;;;;;;29.85;20.20;;;6.80;99.90;;;;;;5052433;28;20025;-74
2021/01/04 06:43:43;;;;;;;61.38;30.00;;;6.90;99.90;;;;;;5070410;28;20107;-74
2021/01/04 06:46:46;;;;;;;56.50;35.50;;;6.90;99.90;;;;;;5070553;28;20021;-74
2021/01/04 06:49:19;;;;;;;57.13;37.97;;;6.90;99.90;;;;;;5070430;28;20031;-74
2021/01/04 06:52:24;;;;;;;50.55;34.88;;;6.90;99.90;;;;;;5070464;28;20020;-74
2021/01/04 06:55:05;;;;;;;62.40;35.47;;;6.90;99.90;;;;;;5070491;28;20023;-74
2021/01/04 06:57:49;;;;;;;;;;;6.90;99.90;;;;;;5070850;28;20024;-74
2021/01/04 07:00:42;;;;;;;69.03;41.38;;;6.90;99.90;;;;;;5070370;28;19908;-74
2021/01/04 07:03:23;;;;;;;72.88;42.72;;;6.90;99.90;;;;;;5070187;28;20025;-74
2021/01/04 07:06:09;;;;;;;59.42;40.72;;;6.90;99.90;;;;;;5073120;28;20028;-74
2021/01/04 07:09:10;;;;;;;59.17;37.85;;;6.90;99.90;;;;;;5052384;28;20112;-74
2021/01/04 07:11:45;;;;;;;63.53;38.28;;;6.90;99.90;;;;;;5073857;28;20551;-74
2021/01/04 07:14:52;;;;;;;63.25;42.55;;;6.90;99.90;;;;;;5073849;28;20078;-75
2021/01/04 07:17:55;;;;;;;90.47;55.42;;;6.90;99.90;;;;;;5055317;28;20445;-74
2021/01/04 07:20:43;;;;;;;89.88;58.08;;;7.00;99.90;;;;;;5073811;28;20024;-75
2021/01/04 07:23:28;;;;;;;105.65;72.45;;;7.00;99.90;;;;;;5073873;28;20024;-76
2021/01/04 07:26:20;;;;;;;108.85;70.50;;;7.00;99.90;;;;;;5073756;28;20032;-75
2021/01/04 07:29:00;;;;;;;115.75;70.63;;;7.00;99.90;;;;;;5073407;28;20051;-75
2021/01/04 07:31:32;;;;;;;101.82;67.05;;;7.10;99.90;;;;;;5055635;28;20049;-76
2021/01/04 07:34:16;;;;;;;91.13;55.05;;;7.10;99.90;;;;;;5073576;28;20032;-75
2021/01/04 07:37:02;;;;;;;114.53;69.68;;;7.20;99.90;;;;;;5073521;28;20763;-75
2021/01/04 07:40:10;;;;;;;131.65;77.65;;;7.20;99.90;;;;;;5073274;28;20031;-75
2021/01/04 07:43:13;;;;;;;114.70;68.13;;;7.30;99.90;;;;;;5067456;28;20449;-76
2021/01/04 07:46:16;;;;;;;114.68;66.65;;;7.30;99.90;;;;;;5073360;28;20446;-76
2021/01/04 07:49:12;;;;;;;95.18;59.92;;;7.40;99.90;;;;;;5073312;28;20491;-76
2021/01/04 07:51:53;;;;;;;87.20;49.42;;;7.40;99.90;;;;;;5073253;28;20100;-75
2021/01/04 07:54:37;;;;;;;81.90;51.20;;;7.40;99.90;;;;;;5073164;28;20097;-75
2021/01/04 07:57:36;;;;;;;88.72;59.13;;;7.50;99.90;;;;;;5073181;28;20039;-75
2021/01/04 08:00:08;;;;;;;89.18;58.58;;;7.50;99.90;;;;;;5073058;28;20039;-76
2021/01/04 08:03:11;;;;;;;101.90;59.80;;;7.50;99.90;;;;;;5072932;28;20483;-75
2021/01/04 08:06:21;;;;;;;81.65;47.65;;;7.60;99.90;;;;;;5072878;28;20029;-75
2021/01/04 08:09:09;;;;;;;;;;;7.60;99.90;;;;;;5057139;28;20040;-75
2021/01/04 08:12:07;;;;;;;74.03;44.35;;;7.60;99.90;;;;;;5072794;28;19905;-75
2021/01/04 08:14:56;;;;;;;91.88;50.80;;;7.70;99.90;;;;;;5058518;28;20044;-75
2021/01/04 08:17:37;;;;;;;77.93;48.72;;;7.70;99.90;;;;;;5053853;28;20387;-75
2021/01/04 08:20:04;;;;;;;;;;;7.70;99.90;;;;;;5072955;28;20032;-75
2021/01/04 08:22:39;;;;;;;106.60;56.88;;;7.80;99.90;;;;;;5054644;28;19912;-75
2021/01/04 08:25:21;;;;;;;97.75;59.45;;;7.80;99.90;;;;;;5072531;28;19915;-75
2021/01/04 08:28:03;;;;;;;95.65;59.63;;;7.80;99.90;;;;;;5072386;28;20475;-75
2021/01/04 08:30:58;;;;;;;88.85;53.80;;;7.90;99.90;;;;;;5072316;28;20068;-75
2021/01/04 08:33:54;;;;;;;82.85;49.33;;;7.90;99.90;;;;;;5054053;28;20491;-75
2021/01/04 08:36:29;;;;;;;93.25;56.33;;;7.90;99.90;;;;;;5072338;28;20052;-75
2021/01/04 08:39:30;;;;;;;335.17;61.10;;;7.90;99.90;;;;;;5072261;28;20067;-75
2021/01/04 08:42:20;;;;;;;84.20;44.05;;;8.00;99.90;;;;;;5058290;28;20094;-79
2021/01/04 08:45:09;;;;;;;79.88;44.95;;;8.20;99.90;;;;;;5070147;28;20068;-79
2021/01/04 08:47:42;;;;;;;92.68;44.65;;;8.20;99.90;;;;;;5063951;28;20108;-80
2021/01/04 08:50:23;;;;;;;100.40;43.83;;;8.30;99.90;;;;;;5064568;28;20431;-80
2021/01/04 08:52:54;;;;;;;118.70;77.60;;;8.40;99.90;;;;;;5045820;28;20375;-78
2021/01/04 08:55:31;;;;;;;216.82;173.93;;;8.40;99.90;;;;;;5063257;28;20025;-79
2021/01/04 08:58:12;;;;;;;288.52;239.68;;;8.40;99.90;;;;;;5062937;28;20017;-78
2021/01/04 09:00:38;;;;;;;145.93;115.03;;;8.60;99.90;;;;;;5062923;28;20017;-80
2021/01/04 09:03:04;;;;;;;136.90;94.80;;;8.70;99.90;;;;;;5062746;28;20078;-78
2021/01/04 09:05:41;;;;;;;752.97;630.45;;;8.90;99.90;;;;;;5061328;28;20064;-77
2021/01/04 09:08:10;;;;;;;217.60;172.85;;;9.20;99.90;;;;;;5062168;28;20070;-78
2021/01/04 09:10:36;;;;;;;139.60;90.78;;;9.60;99.90;;;;;;5086588;28;20058;-79
2021/01/04 09:13:37;;;;;;;144.70;91.30;;;9.80;99.90;;;;;;5061245;28;20110;-78
2021/01/04 09:16:11;;;;;;;;;;;10.20;99.90;;;;;;5075012;28;20032;-79
2021/01/04 09:18:41;;;;;;;80.68;54.70;;;10.60;99.90;;;;;;5072691;28;19911;-78
2021/01/04 09:21:31;;;;;;;83.38;49.13;;;11.10;99.90;;;;;;5052245;28;20112;-78
2021/01/04 09:24:28;;;;;;;91.05;45.85;;;11.50;99.90;;;;;;5053438;28;20036;-75
2021/01/04 09:27:01;;;;;;;63.63;40.90;;;11.00;99.90;;;;;;5060517;28;20041;-74
2021/01/04 09:29:37;;;;;;;60.28;39.72;;;10.40;99.90;;;;;;5060647;28;20070;-74
2021/01/04 09:32:13;;;;;;;67.15;44.00;;;10.00;99.90;;;;;;5051158;28;20480;-75
2021/01/04 09:34:38;;;;;;;56.75;36.47;;;9.70;99.90;;;;;;5051124;28;20407;-74
2021/01/04 09:37:04;;;;;;;56.35;38.92;;;9.60;99.90;;;;;;5051016;28;20043;-75
2021/01/04 09:39:33;;;;;;;453.17;356.10;;;9.40;99.90;;;;;;5050913;28;20037;-76
2021/01/04 09:42:01;;;;;;;142.80;98.03;;;9.70;99.90;;;;;;5051109;28;20029;-75
2021/01/04 09:44:27;;;;;;;91.63;58.72;;;9.80;99.90;;;;;;5050581;28;20052;-75
2021/01/04 09:47:01;;;;;;;88.88;54.78;;;9.60;99.90;;;;;;5051036;28;20017;-75
2021/01/04 09:49:40;;;;;;;53.15;35.83;;;9.50;99.90;;;;;;5050928;28;20656;-75
2021/01/04 09:52:42;;;;;;;53.75;38.22;;;9.40;99.90;;;;;;5050845;28;20029;-75
2021/01/04 09:55:11;;;;;;;44.15;27.88;;;9.30;99.90;;;;;;5053093;28;20025;-75
2021/01/04 09:57:45;;;;;;;44.75;29.65;;;9.30;99.90;;;;;;5058766;28;20496;-74
2021/01/04 10:00:23;;;;;;;45.38;29.38;;;9.40;99.90;;;;;;5058283;28;20548;-75
2021/01/04 10:03:09;;;;;;;48.38;32.15;;;9.30;99.90;;;;;;5040742;28;20056;-75
2021/01/04 10:05:41;;;;;;;58.67;36.83;;;9.40;99.90;;;;;;5060524;28;20487;-76
2021/01/04 10:08:28;;;;;;;52.70;34.80;;;9.40;99.90;;;;;;5040218;28;20392;-75
2021/01/04 10:11:01;;;;;;;53.15;32.08;;;9.40;99.90;;;;;;5060269;28;20078;-75
2021/01/04 10:13:29;;;;;;;58.22;41.55;;;9.40;99.90;;;;;;5054988;28;20082;-75
2021/01/04 10:15:58;;;;;;;47.15;28.65;;;9.40;99.90;;;;;;5050386;28;20021;-75
2021/01/04 10:18:39;;;;;;;52.95;34.63;;;9.40;99.90;;;;;;5050584;28;20024;-76
2021/01/04 10:21:10;;;;;;;59.67;36.85;;;9.50;99.90;;;;;;5050801;28;20123;-75
2021/01/04 10:23:42;;;;;;;56.85;35.85;;;9.50;99.90;;;;;;5050648;28;20033;-75
2021/01/04 10:26:10;;;;;;;50.92;31.75;;;9.60;99.90;;;;;;5050715;28;20382;-74
2021/01/04 10:28:39;;;;;;;50.63;29.58;;;9.60;99.90;;;;;;5050619;28;20057;-76
2021/01/04 10:31:18;;;;;;;780.22;557.72;;;9.60;99.90;;;;;;5030940;28;20041;-75
2021/01/04 10:33:44;;;;;;;161.02;98.72;;;10.80;99.90;;;;;;5030596;28;20052;-75
2021/01/04 10:36:22;;;;;;;115.65;72.47;;;10.50;99.90;;;;;;5030649;28;20034;-75
2021/01/04 10:39:04;;;;;;;78.70;51.95;;;10.30;99.90;;;;;;5029269;28;20029;-75
2021/01/04 10:41:34;;;;;;;198.65;108.68;;;10.20;99.90;;;;;;5034322;28;20049;-75
2021/01/04 10:44:26;;;;;;;81.18;48.38;;;10.10;99.90;;;;;;5034550;28;20112;-75
2021/01/04 10:47:08;;;;;;;147.35;70.65;;;10.10;99.90;;;;;;5030987;28;20045;-75
2021/01/04 10:49:35;;;;;;;243.00;115.18;;;10.10;99.90;;;;;;5034442;28;20104;-75
2021/01/04 10:52:03;;;;;;;117.30;64.22;;;10.20;99.90;;;;;;5033541;28;20058;-74
2021/01/04 10:54:43;;;;;;;74.38;43.72;;;10.20;99.90;;;;;;5034284;28;20033;-75
2021/01/04 10:57:12;;;;;;;70.60;42.17;;;10.20;99.90;;;;;;5051435;28;20115;-75
2021/01/04 10:59:53;;;;;;;51.38;34.03;;;10.10;99.90;;;;;;5052785;28;20029;-74
2021/01/04 11:02:19;;;;;;;148.65;76.18;;;10.20;99.90;;;;;;5053035;28;20075;-74
2021/01/04 11:04:53;;;;;;;69.28;35.22;;;10.60;99.90;;;;;;5054116;28;20846;-74
2021/01/04 11:07:28;;;;;;;56.85;32.65;;;10.40;99.90;;;;;;5053973;28;20017;-74
2021/01/04 11:09:54;;;;;;;155.73;75.95;;;10.30;99.90;;;;;;5053763;28;20017;-74
2021/01/04 11:12:27;;;;;;;26.52;17.25;;;10.30;99.90;;;;;;5053934;28;20476;-74
2021/01/04 11:14:58;;;;;;;102.93;52.00;;;10.30;99.90;;;;;;5054036;28;20495;-74
2021/01/04 11:17:34;;;;;;;35.47;22.40;;;10.20;99.90;;;;;;5053794;28;20118;-74
2021/01/04 11:20:17;;;;;;;28.20;19.13;;;10.30;99.90;;;;;;5053774;28;20488;-74
2021/01/04 11:22:43;;;;;;;29.77;18.13;;;10.30;99.90;;;;;;5053627;28;20032;-74
2021/01/04 11:25:12;;;;;;;25.70;16.10;;;10.30;99.90;;;;;;5053389;28;20032;-74
2021/01/04 11:27:38;;;;;;;25.00;16.23;;;10.20;99.90;;;;;;5053447;28;20033;-74
2021/01/04 11:30:05;;;;;;;29.15;19.15;;;10.30;99.90;;;;;;5064741;28;20044;-74
2021/01/04 11:32:31;;;;;;;31.10;19.48;;;10.30;99.90;;;;;;5072855;28;20374;-74
2021/01/04 11:35:00;;;;;;;28.52;18.95;;;10.40;99.90;;;;;;5072978;28;20028;-74
2021/01/04 11:37:27;;;;;;;23.13;15.50;;;10.40;99.90;;;;;;5072940;28;20032;-74
2021/01/04 11:39:53;;;;;;;19.17;13.57;;;10.40;99.90;;;;;;5073409;28;20048;-74
2021/01/04 11:42:21;;;;;;;19.77;13.32;;;10.40;99.90;;;;;;5073188;28;20395;-74
2021/01/04 11:44:47;;;;;;;23.83;14.70;;;10.40;99.90;;;;;;5073050;28;20021;-74
2021/01/04 11:47:13;;;;;;;22.70;13.23;;;10.50;99.90;;;;;;5073001;28;20038;-74
2021/01/04 11:49:39;;;;;;;19.13;12.40;;;10.50;99.90;;;;;;5072896;28;20096;-74
2021/01/04 11:52:05;;;;;;;20.50;16.08;;;10.50;99.90;;;;;;5073012;28;20074;-73
2021/01/04 11:54:31;;;;;;;105.57;55.08;;;10.60;99.90;;;;;;5073055;28;20035;-74
2021/01/04 11:56:57;;;;;;;44.42;27.30;;;10.60;99.90;;;;;;5057897;28;20029;-75
2021/01/04 11:59:23;;;;;;;36.22;19.45;;;10.60;99.90;;;;;;5034814;28;20384;-74
2021/01/04 12:01:50;;;;;;;45.50;27.05;;;10.80;99.90;;;;;;5087221;28;20113;-75
2021/01/04 12:04:16;;;;;;;35.90;20.55;;;10.80;99.90;;;;;;5091277;28;20608;-75
2021/01/04 12:06:46;;;;;;;76.45;42.05;;;10.80;99.90;;;;;;5091669;28;20077;-75
2021/01/04 12:09:12;;;;;;;33.10;18.10;;;10.80;99.90;;;;;;5054130;28;20388;-74
2021/01/04 12:11:39;;;;;;;21.30;13.60;;;10.90;99.90;;;;;;5068225;28;20033;-74
2021/01/04 12:14:07;;;;;;;17.58;10.63;;;10.90;99.90;;;;;;5065948;28;20025;-74
2021/01/04 12:16:34;;;;;;;20.10;13.35;;;10.80;99.90;;;;;;5042406;28;20412;-74
2021/01/04 12:19:04;;;;;;;18.10;12.18;;;10.80;99.90;;;;;;5073384;28;20020;-74
2021/01/04 12:21:30;;;;;;;35.97;23.80;;;10.70;99.90;;;;;;5087940;28;20349;-74
2021/01/04 12:23:56;;;;;;;27.95;17.00;;;10.70;99.90;;;;;;5076734;28;20037;-75
2021/01/04 12:26:22;;;;;;;27.48;15.73;;;10.70;99.90;;;;;;5064560;28;20029;-74
2021/01/04 12:28:49;;;;;;;65.53;40.78;;;10.70;99.90;;;;;;5061735;28;20028;-74
2021/01/04 12:31:16;;;;;;;28.13;17.88;;;10.70;99.90;;;;;;5071314;28;20060;-74
2021/01/04 12:33:42;;;;;;;55.15;33.97;;;10.70;99.90;;;;;;5070948;28;20024;-74
2021/01/04 12:36:15;;;;;;;25.45;15.25;;;11.00;99.90;;;;;;5071503;28;20020;-74
2021/01/04 12:38:41;;;;;;;29.83;17.38;;;12.10;99.90;;;;;;5053364;28;20111;-74
2021/01/04 12:41:07;;;;;;;20.88;13.10;;;11.60;99.90;;;;;;5070720;28;20153;-74
2021/01/04 12:43:33;;;;;;;46.63;26.02;;;11.40;99.90;;;;;;5069772;28;20036;-74
2021/01/04 12:45:59;;;;;;;40.08;23.60;;;11.20;99.90;;;;;;5066350;28;20087;-75
2021/01/04 12:48:25;;;;;;;46.65;31.35;;;11.10;99.90;;;;;;5069261;28;20032;-74
2021/01/04 12:50:52;;;;;;;38.10;21.98;;;11.10;99.90;;;;;;5071233;28;20036;-75
2021/01/04 12:53:18;;;;;;;67.13;38.95;;;11.10;99.90;;;;;;5083007;28;20479;-74
2021/01/04 12:55:44;;;;;;;86.38;59.17;;;11.00;99.90;;;;;;5073435;28;20032;-74
2021/01/04 12:58:09;;;;;;;107.45;73.45;;;11.00;99.90;;;;;;5086020;28;20028;-75
2021/01/04 13:00:37;;;;;;;71.00;45.17;;;11.00;99.90;;;;;;5070498;28;20033;-75
2021/01/04 13:03:03;;;;;;;63.70;42.28;;;10.90;99.90;;;;;;5069984;28;20028;-75
2021/01/04 13:05:29;;;;;;;85.10;54.90;;;10.90;99.90;;;;;;5070966;28;20032;-75
2021/01/04 13:07:57;;;;;;;88.10;56.15;;;10.90;99.90;;;;;;5070681;28;20384;-75
2021/01/04 13:10:23;;;;;;;97.38;60.25;;;10.80;99.90;;;;;;5070134;28;20601;-74
2021/01/04 13:12:49;;;;;;;85.40;56.22;;;10.80;99.90;;;;;;5070556;28;20487;-75
2021/01/04 13:15:16;;;;;;;91.47;61.00;;;10.80;99.90;;;;;;5052471;28;20126;-75
2021/01/04 13:17:44;;;;;;;79.97;48.88;;;10.80;99.90;;;;;;5069504;28;20031;-74
2021/01/04 13:20:11;;;;;;;149.35;79.45;;;10.80;99.90;;;;;;5070509;28;20476;-75
2021/01/04 13:22:37;;;;;;;102.18;49.58;;;10.90;99.90;;;;;;5070671;28;20036;-77
2021/01/04 13:25:03;;;;;;;125.90;74.43;;;14.60;99.90;;;;;;5069924;28;20036;-75